Date,TemperatureHighF,TemperatureAvgF,TemperatureLowF,DewpointHighF,DewpointAvgF,DewpointLowF,HumidityHigh,HumidityAvg,HumidityLow,PressureMaxIn,PressureMinIn,WindSpeedMaxMPH,WindSpeedAvgMPH,GustSpeedMaxMPH,PrecipitationSumIn
2013-1-1,23.0,18.6,7.3,22.8,18.4,7.1,99,99,99,30.14,30.01,10,5,0,0.00
2013-1-2,25.9,14.3,3.2,25.7,14.1,3.0,99,99,99,30.18,30.07,8,3,0,0.00
2013-1-3,32.0,23.8,16.0,31.8,23.6,15.8,99,99,99,30.26,30.09,14,6,0,0.00
2013-1-4,33.8,22.8,10.9,33.5,22.6,10.7,99,99,99,30.28,30.19,11,5,0,0.00
2013-1-5,36.3,29.6,19.4,36.0,29.3,19.2,99,99,99,30.22,29.97,11,5,0,0.01
2013-1-6,36.0,28.1,16.0,35.7,27.8,15.8,99,99,99,30.30,29.92,19,8,0,0.00
2013-1-7,37.8,26.8,16.5,37.5,26.5,16.3,99,99,99,30.32,30.08,14,5,0,0.00
2013-1-8,44.2,33.7,24.3,43.9,33.4,24.1,99,99,99,30.13,30.05,9,5,0,0.00
2013-1-9,51.4,39.2,27.1,51.1,38.9,26.9,99,99,99,30.44,30.05,14,4,0,0.00
2013-1-10,49.3,37.2,25.5,49.0,36.9,25.3,99,99,99,30.43,29.77,11,5,0,0.28
2013-1-11,58.1,53.5,50.2,57.8,53.2,49.9,99,99,99,29.77,29.65,13,8,0,0.27
2013-1-12,59.7,47.1,31.6,59.4,46.8,31.4,99,99,99,29.85,29.72,16,7,0,0.60
2013-1-13,32.0,25.3,15.6,31.8,25.1,15.4,99,99,99,30.23,29.73,16,10,0,0.00
2013-1-14,25.0,17.5,13.6,24.8,17.3,13.4,99,99,99,30.38,30.24,8,3,0,0.00
2013-1-15,29.7,21.4,12.0,29.5,21.2,11.8,99,99,99,30.35,30.03,10,3,0,0.00
2013-1-16,36.9,29.2,19.0,36.6,29.0,18.8,99,99,99,30.04,29.85,14,4,0,0.00
2013-1-17,34.9,29.0,17.1,34.6,28.8,16.9,99,99,99,30.37,30.00,16,5,0,0.00
2013-1-18,40.8,31.1,19.2,40.5,30.8,19.0,99,99,99,30.40,29.98,17,8,0,0.01
2013-1-19,53.2,41.9,35.6,52.9,41.6,35.3,99,99,99,30.00,29.75,19,10,0,0.00
2013-1-20,37.4,22.6,17.2,37.1,22.4,17.0,99,99,99,30.23,29.91,23,10,0,0.01
2013-1-21,20.5,12.4,4.8,20.3,12.2,4.6,99,99,99,30.27,30.12,25,13,0,0.00
2013-1-22,17.4,9.8,2.1,17.2,9.6,1.9,99,99,99,30.34,30.25,14,8,0,0.00
2013-1-23,33.6,20.2,9.0,33.3,20.0,8.8,99,99,99,30.29,30.00,20,5,0,0.00
2013-1-24,25.7,17.2,7.0,25.5,17.0,6.8,99,99,99,30.54,30.23,14,7,0,0.00
2013-1-25,34.5,24.7,18.3,34.2,24.5,18.1,99,99,99,30.26,29.93,10,5,0,0.00
2013-1-27,41.9,35.5,32.4,41.6,35.2,32.2,99,99,99,30.11,29.89,14,7,0,0.09
2013-1-28,58.1,51.3,41.5,57.8,51.0,41.2,99,99,99,29.90,29.79,15,8,0,0.05
2013-1-29,61.3,57.9,52.5,61.0,57.6,52.2,99,99,99,29.78,29.28,16,10,0,0.08
2013-1-30,53.8,40.0,22.5,53.5,39.8,22.3,99,99,99,29.66,29.20,30,13,0,0.05
2013-1-31,25.3,18.2,6.8,25.1,18.0,6.6,99,99,99,30.17,29.67,29,16,0,0.00